• Join FlightAware (Why Join?)
  • Login
  • US Flag 
02:13AM EST


 

Airport Tracker/Info


-or-


 

Live Flight TrackerFlight Track Log ✈ JBU1098 ✈ 24-May-2013 ✈ MDSD / SDQ - KFLL

Flight Track Log - Related Links

Times and Time Zones

All times are in EDT time to prevent confusion due to time zone crossing. See the JBU1098 flight status page for this flight to view local times or setup timezone preferences in your user account.

Time Position Orientation Groundspeed Altitude Reporting Facility
EDT Latitude Longitude Course Direction KTS MPH feet Rate Location/Type
06:19AM 19.2597 -70.2522 326° Northwest 454 522 22,900  Level Miami Center
06:20AM 19.3542 -70.3200 326° Northwest 430 495 24,500 1,560 Climbing Miami Center
06:21AM 19.4508 -70.3925 325° Northwest 418 481 26,100 1,320 Climbing Miami Center
06:22AM 19.5453 -70.4606 326° Northwest 418 481 27,200 1,080 Climbing Miami Center
06:23AM 19.6419 -70.5375 326° Northwest 418 481 28,300 1,080 Climbing Miami Center
06:24AM 19.7386 -70.6081 326° Northwest 423 487 29,400 1,200 Climbing Miami Center
06:25AM 19.8331 -70.6831 323° Northwest 423 487 30,700 1,200 Climbing Miami Center
06:26AM 19.9297 -70.7558 325° Northwest 423 487 31,900 1,260 Climbing Miami Center
06:27AM 20.0264 -70.8289 325° Northwest 423 487 33,300 1,200 Climbing Miami Center
06:28AM 20.1208 -70.8997 325° Northwest 423 487 34,300 900 Climbing Miami Center
06:29AM 20.2150 -70.9708 325° Northwest 423 487 35,200 780 Climbing Miami Center
06:30AM 20.3053 -71.0419 324° Northwest 423 487 35,900 360 Climbing Miami Center
06:31AM 20.4103 -71.1217 325° Northwest 418 481 36,000  Climbing Miami Center
06:32AM 20.4889 -71.2133 312° West 418 481 36,000  Level Miami Center
06:33AM 20.5653 -71.3122 310° West 424 488 36,000  Level Miami Center
06:34AM 20.6375 -71.4089 309° West 424 488 36,000  Level Miami Center
06:35AM 20.7139 -71.5056 310° West 424 488 36,000  Level Miami Center
06:36AM 20.7903 -71.6022 310° West 429 494 36,000  Level Miami Center
06:37AM 20.8644 -71.7014 309° West 429 494 36,000  Level Miami Center
06:38AM 20.9406 -71.7986 310° West 429 494 36,000  Level Miami Center
06:39AM 21.0147 -71.8936 310° West 429 494 36,000  Level Miami Center
06:40AM 21.0908 -71.9931 309° West 429 494 36,000  Level Miami Center
06:41AM 21.1669 -72.0903 310° West 429 494 36,000  Level Miami Center
06:42AM 21.2386 -72.1878 308° West 429 494 36,000  Level Miami Center
06:43AM 21.3147 -72.2833 311° West 429 494 36,000  Level Miami Center
06:44AM 21.3883 -72.3811 309° West 429 494 36,000  Level Miami Center
06:45AM 21.4644 -72.4811 309° West 429 494 36,000  Level Miami Center
06:46AM 21.5381 -72.5789 309° West 429 494 36,000  Level Miami Center
06:47AM 21.6139 -72.6769 310° West 429 494 36,000  Level Miami Center
06:48AM 21.6875 -72.7753 309° West 429 494 36,000  Level Miami Center
06:49AM 21.7611 -72.8736 309° West 429 494 36,000  Level Miami Center
06:50AM 21.8367 -72.9717 310° West 429 494 36,000  Level Miami Center
06:51AM 21.9100 -73.0725 308° West 429 494 36,000  Level Miami Center
06:52AM 21.9856 -73.1733 309° West 429 494 36,000  Level Miami Center
06:53AM 22.0483 -73.2611 308° West 429 494 36,000  Level Miami Center
06:54AM 22.1258 -73.3622 310° West 429 494 36,000  Level Miami Center
06:55AM 22.2033 -73.4611 310° West 434 499 36,000  Level Miami Center
06:56AM 22.2722 -73.5647 306° West 434 499 36,000  Level Miami Center
06:57AM 22.3456 -73.6639 309° West 429 494 36,000  Level Miami Center
06:58AM 22.4228 -73.7631 310° West 429 494 36,000  Level Miami Center
06:59AM 22.4894 -73.8625 306° West 429 494 36,000  Level Miami Center
07:00AM 22.5667 -73.9597 311° West 429 494 36,000  Level Miami Center
07:01AM 22.6394 -74.0594 308° West 429 494 36,000  Level Miami Center
07:02AM 22.7144 -74.1567 310° West 429 494 36,000  Level Miami Center
07:03AM 22.7872 -74.2589 308° West 429 494 36,000  Level Miami Center
07:04AM 22.8619 -74.3567 310° West 429 494 36,000  Level Miami Center
07:05AM 22.9411 -74.4656 308° West 429 494 36,000  Level Miami Center
07:06AM 23.0156 -74.5681 308° West 434 499 36,000  Level Miami Center
07:07AM 23.0883 -74.6683 308° West 429 494 36,000  Level Miami Center
07:08AM 23.1650 -74.7686 310° West 429 494 36,000  Level Miami Center
07:09AM 23.2372 -74.8692 308° West 429 494 36,000  Level Miami Center
07:10AM 23.3097 -74.9700 308° West 429 494 36,000  Level Miami Center
07:11AM 23.3839 -75.0706 309° West 429 494 36,000  Level Miami Center
07:12AM 23.4561 -75.1717 308° West 429 494 36,000  Level Miami Center
07:13AM 23.5325 -75.2725 310° West 429 494 36,000  Level Miami Center
07:14AM 23.6025 -75.3736 307° West 429 494 36,000  Level Miami Center
07:15AM 23.6767 -75.4725 309° West 429 494 36,000  Level Miami Center
07:16AM 23.7444 -75.5650 309° West 434 499 36,000  Level Miami Center
07:17AM 23.8161 -75.6664 308° West 429 494 36,000  Level Miami Center
07:18AM 23.8858 -75.7658 307° West 429 494 36,000  Level Miami Center
07:19AM 23.9578 -75.8675 308° West 429 494 36,000  Level Miami Center
07:20AM 24.0272 -75.9669 307° West 429 494 36,000  Level Miami Center
07:21AM 24.0989 -76.0667 308° West 429 494 36,000  Level Miami Center
07:22AM 24.1706 -76.1686 308° West 429 494 36,000  Level Miami Center
07:23AM 24.2419 -76.2708 307° West 429 494 36,000  Level Miami Center
07:24AM 24.3133 -76.3708 308° West 429 494 36,000 -480 Level Miami Center
07:25AM 24.3847 -76.4708 308° West 429 494 35,100 -960 Descending Miami Center
07:26AM 24.4625 -76.5847 307° West 424 488 34,100 -600 Descending Miami Center
07:27AM 24.5314 -76.6875 306° West 424 488 34,000 -60 Descending Miami Center
07:28AM 24.6028 -76.7858 309° West 424 488 34,000  Level Miami Center
07:29AM 24.6758 -76.8886 308° West 424 488 34,000  Level Miami Center
07:30AM 24.7447 -76.9892 307° West 424 488 34,000  Level Miami Center
07:31AM 24.8156 -77.0900 308° West 419 482 34,000  Level Miami Center
07:32AM 24.8867 -77.1933 307° West 419 482 34,000  Level Miami Center
07:33AM 24.9572 -77.2942 308° West 419 482 34,000  Level Miami Center
07:34AM 25.0344 -77.4025 308° West 419 482 34,000  Level Miami Center
07:35AM 25.1008 -77.5036 306° West 425 489 34,000  Level Miami Center
07:36AM 25.1714 -77.6028 308° West 442 509 34,000  Level Miami Center
07:37AM 25.2378 -77.7042 306° West 431 496 34,000  Level Miami Center
07:38AM 25.3103 -77.8083 308° West 426 490 34,000 -480 Level Miami Center
07:39AM 25.3681 -77.9144 301° West 420 483 33,100 -1,440 Descending Miami Center
07:40AM 25.4028 -78.0367 287° West 414 476 31,200 -2,040 Descending Miami Center
07:41AM 25.4392 -78.1636 288° West 421 484 29,100 -2,100 Descending Miami Center
07:42AM 25.4756 -78.2906 288° West 432 497 27,000 -2,160 Descending Miami Center
07:43AM 25.5100 -78.4175 287° West 432 497 24,800 -1,500 Descending Miami Center
07:44AM 25.5442 -78.5400 287° West 427 491 24,000 -900 Descending Miami Center
07:45AM 25.5761 -78.6650 286° West 422 486 23,100 -1,560 Descending Miami Center
07:46AM 25.6122 -78.7786 289° West 417 480 20,900 -2,340 Descending Miami Center
07:47AM 25.6461 -78.8942 288° West 405 466 18,500 -2,460 Descending Miami Center
07:48AM 25.6800 -79.0125 288° West 386 444 16,000 -2,580 Descending Miami Center
07:49AM 25.7097 -79.1189 287° West 375 432 13,400 -2,100 Descending Miami Center
07:50AM 25.7394 -79.2211 288° West 359 413 11,900 -1,260 Descending Miami Center
07:51AM 25.7592 -79.3000 286° West 314 361 10,900 -1,500 Descending Miami Center
07:52AM 25.7825 -79.3903 286° West 291 335 9,000 -1,800 Descending Miami Center
07:53AM 25.8042 -79.4739 286° West 285 328 7,300 -1,800 Descending Miami Center
07:54AM 25.8158 -79.5133 288° West 279 321 6,400 -1,800 Descending Miami Center
07:54AM 25.8217 -79.5411 283° West 278 320 5,900 -1,080 Descending Miami Center
07:55AM 25.8453 -79.6203 288° West 271 312 5,000 -480 Descending Miami Center
07:56AM 25.8922 -79.6789 312° West 268 308 5,000 -540 Level Miami Center
07:57AM 25.9561 -79.7292 325° Northwest 262 302 4,000 -1,020 Descending Miami Center
07:58AM 26.0156 -79.7789 323° Northwest 259 298 3,000 -1,020 Descending Miami Center
07:59AM 26.0456 -79.8492 295° West 250 288 2,000 -540 Descending Miami Center
08:00AM 26.0692 -79.9144 292° West 254 292 2,000  Level Miami Center
08:01AM 26.0719 -79.9864 272° West 214 246 2,000 -180 Level Miami Center
08:02AM 26.0728 -80.0442 271° West 170 196 1,700 -600 Descending Miami Center
08:03AM 26.0778 -80.0997 276° West 180 207 800 -780 Descending Miami Center
08:05AM 26.0726 -80.1527 270° West  Level Estimated
08:12AM 26.0667 -80.1500 77° East  Level FlightAware Approximate